createdAt,value
2023-02-25T00:00:19.482Z,3.72
2023-02-25T00:03:55.344Z,3.79
2023-02-25T00:07:23.042Z,3.83
2023-02-25T00:11:00.849Z,3.80
2023-02-25T00:14:28.888Z,3.77
2023-02-25T00:17:57.780Z,3.74
2023-02-25T00:21:25.002Z,3.70
2023-02-25T00:24:56.099Z,3.66
2023-02-25T00:28:23.353Z,3.65
2023-02-25T00:31:51.084Z,3.62
2023-02-25T00:35:20.332Z,3.61
2023-02-25T00:38:48.763Z,3.60
2023-02-25T00:42:21.111Z,3.61
2023-02-25T00:45:48.112Z,3.58
2023-02-25T00:49:23.918Z,3.57
2023-02-25T00:52:58.995Z,3.59
2023-02-25T00:56:27.394Z,3.65
2023-02-25T00:59:54.409Z,3.67
2023-02-25T01:03:21.158Z,3.70
2023-02-25T01:06:48.240Z,3.75
2023-02-25T01:10:17.216Z,3.79
2023-02-25T01:13:44.788Z,3.83
2023-02-25T01:17:11.860Z,3.85
2023-02-25T01:20:42.917Z,3.87
2023-02-25T01:24:12.876Z,3.87
2023-02-25T01:27:39.547Z,3.86
2023-02-25T01:31:08.662Z,3.81
2023-02-25T01:34:35.816Z,3.79
2023-02-25T01:38:02.517Z,3.77
2023-02-25T01:41:31.774Z,3.74
2023-02-25T01:45:33.006Z,3.70
2023-02-25T01:49:00.119Z,3.67
2023-02-25T01:52:32.699Z,3.62
2023-02-25T01:56:03.359Z,3.63
2023-02-25T01:59:32.141Z,3.64
2023-02-25T02:03:06.027Z,3.66
2023-02-25T02:06:38.601Z,3.67
2023-02-25T02:10:10.476Z,3.71
2023-02-25T02:13:43.370Z,3.76
2023-02-25T02:17:20.253Z,3.81
2023-02-25T02:21:00.492Z,3.85
2023-02-25T02:24:57.235Z,3.88
2023-02-25T02:28:39.691Z,3.89
2023-02-25T02:32:24.854Z,3.81
2023-02-25T02:36:02.949Z,3.77
2023-02-25T02:39:47.613Z,3.74
2023-02-25T02:43:32.830Z,3.72
2023-02-25T02:47:07.291Z,3.67
2023-02-25T02:50:39.789Z,3.64
2023-02-25T02:54:10.036Z,3.62
2023-02-25T02:57:41.571Z,3.60
2023-02-25T03:01:13.555Z,3.60
2023-02-25T03:04:44.011Z,3.58
2023-02-25T03:08:16.377Z,3.59
2023-02-25T03:11:47.346Z,3.59
2023-02-25T03:15:15.932Z,3.60
2023-02-25T03:18:46.259Z,3.57
2023-02-25T03:22:17.388Z,3.56
2023-02-25T03:25:48.993Z,3.59
2023-02-25T03:29:24.054Z,3.62
2023-02-25T03:32:55.198Z,3.63
2023-02-25T03:36:26.489Z,3.64
2023-02-25T03:40:04.502Z,3.65
2023-02-25T03:43:35.242Z,3.64
2023-02-25T03:47:04.671Z,3.63
2023-02-25T03:50:37.236Z,3.56
2023-02-25T03:54:04.142Z,3.50
2023-02-25T03:57:42.240Z,3.44
2023-02-25T04:01:15.668Z,3.39
2023-02-25T04:04:43.790Z,3.37
2023-02-25T04:08:16.460Z,3.35
2023-02-25T04:11:45.549Z,3.36
2023-02-25T04:15:15.708Z,3.35
2023-02-25T04:18:42.849Z,3.39
2023-02-25T04:22:10.038Z,3.43
2023-02-25T04:25:38.023Z,3.47
2023-02-25T04:29:05.797Z,3.51
2023-02-25T04:32:33.086Z,3.55
2023-02-25T04:36:01.930Z,3.61
2023-02-25T04:39:28.822Z,3.69
2023-02-25T04:42:56.798Z,3.76
2023-02-25T04:46:24.241Z,3.78
2023-02-25T04:49:51.310Z,3.81
2023-02-25T04:53:17.520Z,3.83
2023-02-25T04:56:44.692Z,3.85
2023-02-25T05:00:20.063Z,3.83
2023-02-25T05:03:46.672Z,3.76
2023-02-25T05:07:13.676Z,3.70
2023-02-25T05:10:40.263Z,3.66
2023-02-25T05:14:07.057Z,3.61
2023-02-25T05:17:34.200Z,3.56
2023-02-25T05:21:01.299Z,3.53
2023-02-25T05:24:28.499Z,3.53
2023-02-25T05:27:55.579Z,3.53
2023-02-25T05:31:23.871Z,3.55
2023-02-25T05:34:50.593Z,3.57
2023-02-25T05:38:17.057Z,3.63
2023-02-25T05:41:43.754Z,3.68
2023-02-25T05:45:12.676Z,3.69
2023-02-25T05:48:39.853Z,3.70
2023-02-25T05:52:06.223Z,3.72
2023-02-25T05:55:32.814Z,3.76
2023-02-25T05:58:59.773Z,3.80
2023-02-25T06:02:26.400Z,3.78
2023-02-25T06:05:54.167Z,3.81
2023-02-25T06:09:22.024Z,3.79
2023-02-25T06:12:49.286Z,3.79
2023-02-25T06:16:16.357Z,3.80
2023-02-25T06:19:42.876Z,3.82
2023-02-25T06:23:09.853Z,3.79
2023-02-25T06:26:45.683Z,3.76
2023-02-25T06:30:14.802Z,3.73
2023-02-25T06:33:41.463Z,3.71
2023-02-25T06:37:08.711Z,3.69
2023-02-25T06:40:35.562Z,3.67
2023-02-25T06:44:04.486Z,3.69
2023-02-25T06:47:30.900Z,3.71
2023-02-25T06:50:57.744Z,3.78
2023-02-25T06:54:24.666Z,3.80
2023-02-25T06:57:51.175Z,3.81
2023-02-25T07:01:18.772Z,3.84
2023-02-25T07:04:45.588Z,3.87
2023-02-25T07:08:12.498Z,3.90
2023-02-25T07:11:39.170Z,3.92
2023-02-25T07:15:07.206Z,3.94
2023-02-25T07:18:33.685Z,3.99
2023-02-25T07:22:00.211Z,4.02
2023-02-25T07:25:27.812Z,4.03
2023-02-25T07:28:54.942Z,4.05
2023-02-25T07:32:21.693Z,4.10
2023-02-25T07:35:48.949Z,4.14
2023-02-25T07:39:16.279Z,4.15
2023-02-25T07:42:45.471Z,4.15
2023-02-25T07:46:14.030Z,4.16
2023-02-25T07:49:41.484Z,4.17
2023-02-25T07:53:08.495Z,4.16
2023-02-25T07:56:35.239Z,4.14
2023-02-25T08:00:01.723Z,4.12
2023-02-25T08:03:28.125Z,4.11
2023-02-25T08:06:55.581Z,4.12
2023-02-25T08:10:22.617Z,4.14
2023-02-25T08:13:50.684Z,4.17
2023-02-25T08:17:18.897Z,4.22
2023-02-25T08:20:49.946Z,4.24
2023-02-25T08:24:16.524Z,4.32
2023-02-25T08:27:44.425Z,4.39
2023-02-25T08:31:13.489Z,4.47
2023-02-25T08:34:40.381Z,4.50
2023-02-25T08:38:07.517Z,4.54
2023-02-25T08:41:34.366Z,4.57
2023-02-25T08:45:01.867Z,4.58
2023-02-25T08:48:29.296Z,4.57
2023-02-25T08:51:56.042Z,4.57
2023-02-25T08:55:25.272Z,4.56
2023-02-25T08:58:52.587Z,4.55
2023-02-25T09:02:22.938Z,4.55
2023-02-25T09:05:55.836Z,4.52
2023-02-25T09:09:23.343Z,4.55
2023-02-25T09:12:50.014Z,4.56
2023-02-25T09:16:17.832Z,4.55
2023-02-25T09:19:44.726Z,4.61
2023-02-25T09:23:12.144Z,4.68
2023-02-25T09:26:39.390Z,4.69
2023-02-25T09:30:06.816Z,4.71
2023-02-25T09:33:36.845Z,4.71
2023-02-25T09:37:04.793Z,4.70
2023-02-25T09:40:32.353Z,4.75
2023-02-25T09:44:08.763Z,4.76
2023-02-25T09:47:43.517Z,4.78
2023-02-25T09:51:20.375Z,4.77
2023-02-25T09:54:49.536Z,4.74
2023-02-25T09:58:32.619Z,4.73
2023-02-25T10:02:05.190Z,4.72
2023-02-25T10:05:44.564Z,4.70
2023-02-25T10:09:23.286Z,4.69
2023-02-25T10:13:03.915Z,4.72
2023-02-25T10:16:44.655Z,4.75
2023-02-25T10:20:35.357Z,4.78
2023-02-25T10:24:22.153Z,4.82
2023-02-25T10:27:53.614Z,4.86
2023-02-25T10:31:23.095Z,4.88
2023-02-25T10:34:51.968Z,4.89
2023-02-25T10:38:28.123Z,4.93
2023-02-25T10:41:55.507Z,5.00
2023-02-25T10:45:27.526Z,5.03
2023-02-25T10:49:00.170Z,5.02
2023-02-25T10:52:27.418Z,5.01
2023-02-25T10:55:55.126Z,5.04
2023-02-25T10:59:31.713Z,5.03
2023-02-25T11:03:00.223Z,5.00
2023-02-25T11:06:30.878Z,4.96
2023-02-25T11:10:16.334Z,4.95
2023-02-25T11:13:43.342Z,4.96
2023-02-25T11:17:17.530Z,4.94
2023-02-25T11:20:53.351Z,4.95
2023-02-25T11:24:24.534Z,4.96
2023-02-25T11:27:58.943Z,5.00
2023-02-25T11:31:30.846Z,5.07
2023-02-25T11:35:05.203Z,5.17
2023-02-25T11:38:36.915Z,5.26
2023-02-25T11:42:24.426Z,5.35
2023-02-25T11:46:04.375Z,5.40
2023-02-25T11:49:57.354Z,5.41
2023-02-25T11:53:38.921Z,5.38
2023-02-25T11:57:13.861Z,5.38
2023-02-25T12:00:52.388Z,5.34
2023-02-25T12:04:42.294Z,5.27
2023-02-25T12:08:33.958Z,5.21
2023-02-25T12:12:31.178Z,5.16
2023-02-25T12:16:20.024Z,5.16
2023-02-25T12:20:31.417Z,5.15
2023-02-25T12:24:34.123Z,5.15
2023-02-25T12:28:34.610Z,5.16
2023-02-25T12:32:20.242Z,5.20
2023-02-25T12:36:04.192Z,5.33
2023-02-25T12:39:57.901Z,5.48
2023-02-25T12:43:38.696Z,5.52
2023-02-25T12:47:25.487Z,5.53
2023-02-25T12:51:10.843Z,5.51
2023-02-25T12:55:06.092Z,5.45
2023-02-25T12:58:45.403Z,5.34
2023-02-25T13:02:36.484Z,5.23
2023-02-25T13:06:45.462Z,5.17
2023-02-25T13:10:39.560Z,5.16
2023-02-25T13:14:32.273Z,5.12
2023-02-25T13:18:17.998Z,5.06
2023-02-25T13:22:04.637Z,5.01
2023-02-25T13:25:51.251Z,4.99
2023-02-25T13:29:31.831Z,5.02
2023-02-25T13:33:12.590Z,5.03
2023-02-25T13:36:53.219Z,5.03
2023-02-25T13:40:45.611Z,5.07
2023-02-25T13:44:39.701Z,5.09
2023-02-25T13:48:35.418Z,5.05
2023-02-25T13:52:27.988Z,4.96
2023-02-25T13:56:24.773Z,4.92
2023-02-25T14:00:31.366Z,4.94
2023-02-25T14:04:24.256Z,4.90
2023-02-25T14:08:02.862Z,4.88
2023-02-25T14:11:43.749Z,4.85
2023-02-25T14:15:40.344Z,4.80
2023-02-25T14:19:23.986Z,4.72
2023-02-25T14:22:54.701Z,4.67
2023-02-25T14:26:34.961Z,4.58
2023-02-25T14:30:20.186Z,4.51
2023-02-25T14:34:19.228Z,4.48
2023-02-25T14:37:58.643Z,4.41
2023-02-25T14:41:38.099Z,4.37
2023-02-25T14:45:16.912Z,4.34
2023-02-25T14:48:51.185Z,4.34
2023-02-25T14:52:43.473Z,4.34
2023-02-25T14:56:34.793Z,4.26
2023-02-25T15:00:26.628Z,4.26
2023-02-25T15:04:18.409Z,4.17
2023-02-25T15:08:12.988Z,4.07
2023-02-25T15:12:02.324Z,4.04
2023-02-25T15:15:59.852Z,4.03
2023-02-25T15:19:47.191Z,4.01
2023-02-25T15:23:16.755Z,4.03
2023-02-25T15:26:48.831Z,4.05
2023-02-25T15:30:18.670Z,4.01
2023-02-25T15:33:47.625Z,3.99
2023-02-25T15:37:33.755Z,3.93
2023-02-25T15:41:02.849Z,3.84
2023-02-25T15:44:44.188Z,3.73
2023-02-25T15:48:36.636Z,3.63
2023-02-25T15:52:05.298Z,3.54
2023-02-25T15:55:41.835Z,3.52
2023-02-25T15:59:09.167Z,3.54
2023-02-25T16:02:46.856Z,3.56
2023-02-25T16:06:24.017Z,3.53
2023-02-25T16:09:55.487Z,3.46
2023-02-25T16:13:30.900Z,3.42
2023-02-25T16:17:01.235Z,3.35
2023-02-25T16:20:35.168Z,3.30
2023-02-25T16:24:02.865Z,3.26
2023-02-25T16:27:55.902Z,3.21
2023-02-25T16:31:28.011Z,3.17
2023-02-25T16:35:02.942Z,3.14
2023-02-25T16:38:39.006Z,3.18
2023-02-25T16:42:09.895Z,3.18
2023-02-25T16:45:40.820Z,3.15
2023-02-25T16:49:12.943Z,3.09
2023-02-25T16:52:47.525Z,3.02
2023-02-25T16:56:20.394Z,2.99
2023-02-25T16:59:51.355Z,2.97
2023-02-25T17:03:18.992Z,2.95
2023-02-25T17:07:06.259Z,2.88
2023-02-25T17:10:41.552Z,2.85
2023-02-25T17:14:09.367Z,2.79
2023-02-25T17:17:40.648Z,2.73
2023-02-25T17:21:10.833Z,2.70
2023-02-25T17:24:38.008Z,2.66
2023-02-25T17:28:06.159Z,2.64
2023-02-25T17:31:43.299Z,2.66
2023-02-25T17:35:13.617Z,2.64
2023-02-25T17:38:42.752Z,2.67
2023-02-25T17:42:39.291Z,2.64
2023-02-25T17:46:16.024Z,2.63
2023-02-25T17:49:44.288Z,2.64
2023-02-25T17:53:25.584Z,2.61
2023-02-25T17:56:59.350Z,2.49
2023-02-25T18:00:32.295Z,2.39
2023-02-25T18:04:06.958Z,2.31
2023-02-25T18:07:34.543Z,2.25
2023-02-25T18:11:27.313Z,2.25
2023-02-25T18:14:59.368Z,2.26
2023-02-25T18:18:26.424Z,2.20
2023-02-25T18:21:55.499Z,2.16
2023-02-25T18:25:35.084Z,2.14
2023-02-25T18:29:03.050Z,2.12
2023-02-25T18:32:31.558Z,2.06
2023-02-25T18:35:59.748Z,2.03
2023-02-25T18:39:28.961Z,2.00
2023-02-25T18:42:56.006Z,1.94
2023-02-25T18:46:23.780Z,1.93
2023-02-25T18:49:51.036Z,1.90
2023-02-25T18:53:20.697Z,1.87
2023-02-25T18:56:47.704Z,1.85
2023-02-25T19:00:18.467Z,1.84
2023-02-25T19:03:46.298Z,1.81
2023-02-25T19:07:14.196Z,1.80
2023-02-25T19:10:41.604Z,1.76
2023-02-25T19:14:09.434Z,1.69
2023-02-25T19:17:36.135Z,1.68
2023-02-25T19:21:03.500Z,1.70
2023-02-25T19:24:30.537Z,1.73
2023-02-25T19:28:02.069Z,1.76
2023-02-25T19:31:38.526Z,1.78
2023-02-25T19:35:11.896Z,1.75
2023-02-25T19:38:38.891Z,1.76
2023-02-25T19:42:06.381Z,1.74
2023-02-25T19:45:35.263Z,1.71
2023-02-25T19:49:02.159Z,1.68
2023-02-25T19:52:30.952Z,1.62
2023-02-25T19:56:00.697Z,1.57
2023-02-25T19:59:31.144Z,1.52
2023-02-25T20:02:58.841Z,1.44
2023-02-25T20:06:26.631Z,1.40
2023-02-25T20:09:54.259Z,1.34
2023-02-25T20:13:21.054Z,1.28
2023-02-25T20:16:48.670Z,1.23
2023-02-25T20:20:17.585Z,1.18
2023-02-25T20:23:46.978Z,1.15
2023-02-25T20:27:15.570Z,1.11
2023-02-25T20:30:45.081Z,1.09
2023-02-25T20:34:18.231Z,1.08
2023-02-25T20:37:56.273Z,1.09
2023-02-25T20:41:25.462Z,1.11
2023-02-25T20:44:59.618Z,1.13
2023-02-25T20:48:32.959Z,1.18
2023-02-25T20:52:02.284Z,1.20
2023-02-25T20:55:30.947Z,1.23
2023-02-25T20:58:58.537Z,1.23
2023-02-25T21:02:27.851Z,1.25
2023-02-25T21:05:56.676Z,1.24
2023-02-25T21:09:25.217Z,1.24
2023-02-25T21:12:56.130Z,1.22
2023-02-25T21:16:25.939Z,1.20
2023-02-25T21:19:57.444Z,1.20
2023-02-25T21:23:28.760Z,1.22
2023-02-25T21:27:10.134Z,1.22
2023-02-25T21:30:37.578Z,1.23
2023-02-25T21:34:09.775Z,1.23
2023-02-25T21:37:39.512Z,1.27
2023-02-25T21:41:12.963Z,1.25
2023-02-25T21:44:40.310Z,1.33
2023-02-25T21:48:11.607Z,1.35
2023-02-25T21:51:42.922Z,1.39
2023-02-25T21:55:13.272Z,1.45
2023-02-25T21:58:43.313Z,1.51
2023-02-25T22:02:13.075Z,1.53
2023-02-25T22:05:48.563Z,1.58
2023-02-25T22:09:20.930Z,1.56
2023-02-25T22:12:49.022Z,1.53
2023-02-25T22:16:18.745Z,1.53
2023-02-25T22:19:47.144Z,1.46
2023-02-25T22:23:14.404Z,1.44
2023-02-25T22:26:41.441Z,1.41
2023-02-25T22:30:14.152Z,1.43
2023-02-25T22:33:42.585Z,1.45
2023-02-25T22:37:10.159Z,1.48
2023-02-25T22:40:41.690Z,1.48
2023-02-25T22:44:09.182Z,1.50
2023-02-25T22:47:37.527Z,1.50
2023-02-25T22:51:13.542Z,1.48
2023-02-25T22:54:41.280Z,1.42
2023-02-25T22:58:09.426Z,1.38
2023-02-25T23:01:39.206Z,1.34
2023-02-25T23:05:10.613Z,1.30
2023-02-25T23:08:39.472Z,1.24
2023-02-25T23:12:07.865Z,1.22
2023-02-25T23:15:36.726Z,1.20
2023-02-25T23:19:05.666Z,1.20
2023-02-25T23:22:35.087Z,1.22
2023-02-25T23:26:01.935Z,1.23
2023-02-25T23:29:29.792Z,1.27
2023-02-25T23:32:57.724Z,1.31
2023-02-25T23:36:24.885Z,1.29
2023-02-25T23:39:52.627Z,1.29
2023-02-25T23:43:20.356Z,1.30
2023-02-25T23:46:48.041Z,1.28
2023-02-25T23:50:17.967Z,1.28
2023-02-25T23:53:50.600Z,1.32
2023-02-25T23:57:18.849Z,1.35
